sensor_id;sensor_type;location;lat;lon;timestamp;P1;durP1;ratioP1;P2;durP2;ratioP2
23181;SDS011;11759;51.282;6.642;2022-11-15T00:01:00;38.05;;;17.92;;
23181;SDS011;11759;51.282;6.642;2022-11-15T00:03:46;36.75;;;18.08;;
23181;SDS011;11759;51.282;6.642;2022-11-15T00:06:31;45.55;;;18.75;;
23181;SDS011;11759;51.282;6.642;2022-11-15T00:09:16;31.80;;;17.52;;
23181;SDS011;11759;51.282;6.642;2022-11-15T00:12:01;33.30;;;18.02;;
23181;SDS011;11759;51.282;6.642;2022-11-15T00:14:47;39.42;;;19.23;;
23181;SDS011;11759;51.282;6.642;2022-11-15T00:17:32;43.20;;;18.50;;
23181;SDS011;11759;51.282;6.642;2022-11-15T00:20:17;39.80;;;19.35;;
23181;SDS011;11759;51.282;6.642;2022-11-15T00:23:03;40.15;;;18.45;;
23181;SDS011;11759;51.282;6.642;2022-11-15T00:25:58;39.85;;;19.08;;
23181;SDS011;11759;51.282;6.642;2022-11-15T00:28:43;34.20;;;17.65;;
23181;SDS011;11759;51.282;6.642;2022-11-15T00:31:28;37.00;;;17.95;;
23181;SDS011;11759;51.282;6.642;2022-11-15T00:34:14;33.53;;;18.15;;
23181;SDS011;11759;51.282;6.642;2022-11-15T00:36:59;33.65;;;16.85;;
23181;SDS011;11759;51.282;6.642;2022-11-15T00:39:44;39.95;;;17.65;;
23181;SDS011;11759;51.282;6.642;2022-11-15T00:42:29;37.58;;;18.48;;
23181;SDS011;11759;51.282;6.642;2022-11-15T00:45:14;42.47;;;18.77;;
23181;SDS011;11759;51.282;6.642;2022-11-15T00:47:59;41.70;;;18.52;;
23181;SDS011;11759;51.282;6.642;2022-11-15T00:50:45;31.80;;;18.02;;
23181;SDS011;11759;51.282;6.642;2022-11-15T00:53:30;34.60;;;16.33;;
23181;SDS011;11759;51.282;6.642;2022-11-15T00:56:16;34.88;;;17.38;;
23181;SDS011;11759;51.282;6.642;2022-11-15T00:59:01;27.77;;;16.33;;
23181;SDS011;11759;51.282;6.642;2022-11-15T01:01:46;28.80;;;14.93;;
23181;SDS011;11759;51.282;6.642;2022-11-15T01:04:31;38.78;;;15.45;;
23181;SDS011;11759;51.282;6.642;2022-11-15T01:07:16;30.88;;;15.75;;
23181;SDS011;11759;51.282;6.642;2022-11-15T01:10:02;33.35;;;15.32;;
23181;SDS011;11759;51.282;6.642;2022-11-15T01:12:48;28.92;;;14.00;;
23181;SDS011;11759;51.282;6.642;2022-11-15T01:15:33;23.67;;;15.52;;
23181;SDS011;11759;51.282;6.642;2022-11-15T01:18:18;23.52;;;13.45;;
23181;SDS011;11759;51.282;6.642;2022-11-15T01:21:04;28.75;;;13.85;;
23181;SDS011;11759;51.282;6.642;2022-11-15T01:23:54;28.33;;;13.43;;
23181;SDS011;11759;51.282;6.642;2022-11-15T01:26:39;24.85;;;13.23;;
23181;SDS011;11759;51.282;6.642;2022-11-15T01:29:25;26.73;;;13.77;;
23181;SDS011;11759;51.282;6.642;2022-11-15T01:32:10;21.25;;;12.63;;
23181;SDS011;11759;51.282;6.642;2022-11-15T01:34:55;24.80;;;13.60;;
23181;SDS011;11759;51.282;6.642;2022-11-15T01:37:40;24.77;;;12.32;;
23181;SDS011;11759;51.282;6.642;2022-11-15T01:40:26;26.45;;;11.75;;
23181;SDS011;11759;51.282;6.642;2022-11-15T01:49:11;25.75;;;12.45;;
23181;SDS011;11759;51.282;6.642;2022-11-15T01:52:03;23.27;;;12.38;;
23181;SDS011;11759;51.282;6.642;2022-11-15T01:54:52;27.52;;;12.25;;
23181;SDS011;11759;51.282;6.642;2022-11-15T01:57:40;19.95;;;11.05;;
23181;SDS011;11759;51.282;6.642;2022-11-15T02:00:27;22.55;;;13.18;;
23181;SDS011;11759;51.282;6.642;2022-11-15T02:03:15;22.70;;;11.50;;
23181;SDS011;11759;51.282;6.642;2022-11-15T02:06:01;23.67;;;12.25;;
23181;SDS011;11759;51.282;6.642;2022-11-15T02:08:48;19.30;;;11.93;;
23181;SDS011;11759;51.282;6.642;2022-11-15T02:11:34;20.90;;;12.00;;
23181;SDS011;11759;51.282;6.642;2022-11-15T02:14:19;23.08;;;11.20;;
23181;SDS011;11759;51.282;6.642;2022-11-15T02:23:31;19.15;;;10.25;;
23181;SDS011;11759;51.282;6.642;2022-11-15T02:29:48;20.98;;;10.95;;
23181;SDS011;11759;51.282;6.642;2022-11-15T02:33:00;23.00;;;11.95;;
23181;SDS011;11759;51.282;6.642;2022-11-15T02:36:02;18.95;;;11.40;;
23181;SDS011;11759;51.282;6.642;2022-11-15T02:39:08;19.27;;;10.82;;
23181;SDS011;11759;51.282;6.642;2022-11-15T02:42:07;22.67;;;10.55;;
23181;SDS011;11759;51.282;6.642;2022-11-15T02:45:21;21.25;;;11.38;;
23181;SDS011;11759;51.282;6.642;2022-11-15T02:48:09;21.00;;;10.82;;
23181;SDS011;11759;51.282;6.642;2022-11-15T02:50:56;17.63;;;10.60;;
23181;SDS011;11759;51.282;6.642;2022-11-15T02:53:41;20.58;;;10.63;;
23181;SDS011;11759;51.282;6.642;2022-11-15T02:56:27;20.17;;;10.23;;
23181;SDS011;11759;51.282;6.642;2022-11-15T02:59:21;25.65;;;10.77;;
23181;SDS011;11759;51.282;6.642;2022-11-15T03:05:15;22.23;;;11.43;;
23181;SDS011;11759;51.282;6.642;2022-11-15T03:08:12;20.15;;;11.27;;
23181;SDS011;11759;51.282;6.642;2022-11-15T03:11:07;21.83;;;10.75;;
23181;SDS011;11759;51.282;6.642;2022-11-15T03:20:04;20.83;;;10.98;;
23181;SDS011;11759;51.282;6.642;2022-11-15T03:22:51;19.90;;;10.20;;
23181;SDS011;11759;51.282;6.642;2022-11-15T03:25:43;17.95;;;10.68;;
23181;SDS011;11759;51.282;6.642;2022-11-15T03:28:32;21.15;;;11.30;;
23181;SDS011;11759;51.282;6.642;2022-11-15T03:31:21;19.42;;;10.20;;
23181;SDS011;11759;51.282;6.642;2022-11-15T03:34:35;19.88;;;10.38;;
23181;SDS011;11759;51.282;6.642;2022-11-15T03:37:34;22.70;;;10.90;;
23181;SDS011;11759;51.282;6.642;2022-11-15T03:40:27;18.77;;;10.40;;
23181;SDS011;11759;51.282;6.642;2022-11-15T03:43:44;20.55;;;10.55;;
23181;SDS011;11759;51.282;6.642;2022-11-15T03:46:36;20.40;;;10.18;;
23181;SDS011;11759;51.282;6.642;2022-11-15T03:49:29;22.05;;;10.82;;
23181;SDS011;11759;51.282;6.642;2022-11-15T03:52:19;19.13;;;10.52;;
23181;SDS011;11759;51.282;6.642;2022-11-15T03:55:05;17.33;;;10.25;;
23181;SDS011;11759;51.282;6.642;2022-11-15T03:57:53;24.75;;;10.63;;
23181;SDS011;11759;51.282;6.642;2022-11-15T04:00:40;22.17;;;10.20;;
23181;SDS011;11759;51.282;6.642;2022-11-15T04:03:25;20.10;;;10.35;;
23181;SDS011;11759;51.282;6.642;2022-11-15T04:06:10;15.38;;;10.35;;
23181;SDS011;11759;51.282;6.642;2022-11-15T04:08:56;18.17;;;9.98;;
23181;SDS011;11759;51.282;6.642;2022-11-15T04:11:41;19.88;;;9.95;;
23181;SDS011;11759;51.282;6.642;2022-11-15T04:14:26;21.00;;;9.80;;
23181;SDS011;11759;51.282;6.642;2022-11-15T04:17:11;16.48;;;9.85;;
23181;SDS011;11759;51.282;6.642;2022-11-15T04:19:56;19.77;;;9.73;;
23181;SDS011;11759;51.282;6.642;2022-11-15T04:23:01;18.08;;;9.40;;
23181;SDS011;11759;51.282;6.642;2022-11-15T04:26:08;13.80;;;8.88;;
23181;SDS011;11759;51.282;6.642;2022-11-15T04:28:55;19.88;;;9.75;;
23181;SDS011;11759;51.282;6.642;2022-11-15T04:31:59;18.35;;;9.63;;
23181;SDS011;11759;51.282;6.642;2022-11-15T04:34:45;22.88;;;9.45;;
23181;SDS011;11759;51.282;6.642;2022-11-15T04:37:31;17.77;;;9.75;;
23181;SDS011;11759;51.282;6.642;2022-11-15T04:40:16;23.52;;;10.50;;
23181;SDS011;11759;51.282;6.642;2022-11-15T04:43:01;22.13;;;9.38;;
23181;SDS011;11759;51.282;6.642;2022-11-15T04:45:48;18.05;;;9.32;;
23181;SDS011;11759;51.282;6.642;2022-11-15T04:48:33;15.50;;;8.65;;
23181;SDS011;11759;51.282;6.642;2022-11-15T04:51:18;14.35;;;9.27;;
23181;SDS011;11759;51.282;6.642;2022-11-15T04:54:03;15.82;;;9.25;;
23181;SDS011;11759;51.282;6.642;2022-11-15T04:56:48;17.48;;;8.88;;
23181;SDS011;11759;51.282;6.642;2022-11-15T04:59:33;17.92;;;8.80;;
23181;SDS011;11759;51.282;6.642;2022-11-15T05:02:19;15.40;;;9.38;;
23181;SDS011;11759;51.282;6.642;2022-11-15T05:05:04;13.88;;;7.97;;
23181;SDS011;11759;51.282;6.642;2022-11-15T05:07:49;13.63;;;8.35;;
23181;SDS011;11759;51.282;6.642;2022-11-15T05:10:35;15.73;;;8.75;;
23181;SDS011;11759;51.282;6.642;2022-11-15T05:13:19;14.88;;;8.25;;
23181;SDS011;11759;51.282;6.642;2022-11-15T05:16:05;14.30;;;8.00;;
23181;SDS011;11759;51.282;6.642;2022-11-15T05:18:51;16.60;;;9.00;;
23181;SDS011;11759;51.282;6.642;2022-11-15T05:21:36;15.93;;;8.13;;
23181;SDS011;11759;51.282;6.642;2022-11-15T05:24:21;18.05;;;8.85;;
23181;SDS011;11759;51.282;6.642;2022-11-15T05:27:07;19.23;;;8.50;;
23181;SDS011;11759;51.282;6.642;2022-11-15T05:29:52;18.08;;;9.68;;
23181;SDS011;11759;51.282;6.642;2022-11-15T05:32:37;16.58;;;8.85;;
23181;SDS011;11759;51.282;6.642;2022-11-15T05:35:32;15.52;;;8.70;;
23181;SDS011;11759;51.282;6.642;2022-11-15T05:38:19;16.52;;;9.27;;
23181;SDS011;11759;51.282;6.642;2022-11-15T05:41:04;17.83;;;8.90;;
23181;SDS011;11759;51.282;6.642;2022-11-15T05:43:50;14.55;;;8.00;;
23181;SDS011;11759;51.282;6.642;2022-11-15T05:46:35;16.83;;;8.55;;
23181;SDS011;11759;51.282;6.642;2022-11-15T05:49:21;13.70;;;8.05;;
23181;SDS011;11759;51.282;6.642;2022-11-15T05:52:11;18.90;;;8.40;;
23181;SDS011;11759;51.282;6.642;2022-11-15T05:54:59;13.07;;;8.00;;
23181;SDS011;11759;51.282;6.642;2022-11-15T05:57:44;14.23;;;8.68;;
23181;SDS011;11759;51.282;6.642;2022-11-15T06:00:29;16.30;;;7.93;;
23181;SDS011;11759;51.282;6.642;2022-11-15T06:03:14;16.05;;;8.77;;
23181;SDS011;11759;51.282;6.642;2022-11-15T06:06:00;15.25;;;8.77;;
23181;SDS011;11759;51.282;6.642;2022-11-15T06:08:45;11.95;;;7.95;;
23181;SDS011;11759;51.282;6.642;2022-11-15T06:11:30;11.95;;;7.60;;
23181;SDS011;11759;51.282;6.642;2022-11-15T06:14:19;16.20;;;7.53;;
23181;SDS011;11759;51.282;6.642;2022-11-15T06:17:04;15.02;;;7.35;;
23181;SDS011;11759;51.282;6.642;2022-11-15T06:19:55;14.63;;;7.47;;
23181;SDS011;11759;51.282;6.642;2022-11-15T06:22:40;10.68;;;6.93;;
23181;SDS011;11759;51.282;6.642;2022-11-15T06:25:25;12.98;;;6.82;;
23181;SDS011;11759;51.282;6.642;2022-11-15T06:28:11;9.88;;;6.28;;
23181;SDS011;11759;51.282;6.642;2022-11-15T06:31:01;10.27;;;6.53;;
23181;SDS011;11759;51.282;6.642;2022-11-15T06:33:50;11.48;;;7.40;;
23181;SDS011;11759;51.282;6.642;2022-11-15T06:36:35;12.40;;;6.72;;
23181;SDS011;11759;51.282;6.642;2022-11-15T06:39:21;11.15;;;7.18;;
23181;SDS011;11759;51.282;6.642;2022-11-15T06:42:10;15.38;;;8.15;;
23181;SDS011;11759;51.282;6.642;2022-11-15T06:44:54;12.75;;;7.60;;
23181;SDS011;11759;51.282;6.642;2022-11-15T06:47:46;13.65;;;7.85;;
23181;SDS011;11759;51.282;6.642;2022-11-15T06:50:31;13.73;;;7.65;;
23181;SDS011;11759;51.282;6.642;2022-11-15T06:53:16;11.05;;;7.00;;
23181;SDS011;11759;51.282;6.642;2022-11-15T06:56:02;10.50;;;7.15;;
23181;SDS011;11759;51.282;6.642;2022-11-15T06:58:49;11.40;;;6.43;;
23181;SDS011;11759;51.282;6.642;2022-11-15T07:01:35;10.15;;;6.30;;
23181;SDS011;11759;51.282;6.642;2022-11-15T07:04:20;12.05;;;6.90;;
23181;SDS011;11759;51.282;6.642;2022-11-15T07:07:05;11.25;;;5.80;;
23181;SDS011;11759;51.282;6.642;2022-11-15T07:09:51;11.05;;;6.10;;
23181;SDS011;11759;51.282;6.642;2022-11-15T07:12:36;10.32;;;5.20;;
23181;SDS011;11759;51.282;6.642;2022-11-15T07:15:24;8.00;;;4.85;;
23181;SDS011;11759;51.282;6.642;2022-11-15T07:18:10;7.93;;;3.63;;
23181;SDS011;11759;51.282;6.642;2022-11-15T07:20:55;6.18;;;4.18;;
23181;SDS011;11759;51.282;6.642;2022-11-15T07:23:41;8.68;;;3.90;;
23181;SDS011;11759;51.282;6.642;2022-11-15T07:26:26;5.85;;;3.08;;
23181;SDS011;11759;51.282;6.642;2022-11-15T07:29:12;4.82;;;2.85;;
23181;SDS011;11759;51.282;6.642;2022-11-15T07:31:57;5.60;;;2.60;;
23181;SDS011;11759;51.282;6.642;2022-11-15T07:34:42;3.47;;;1.20;;
23181;SDS011;11759;51.282;6.642;2022-11-15T07:37:27;4.65;;;1.80;;
23181;SDS011;11759;51.282;6.642;2022-11-15T07:40:12;3.05;;;1.17;;
23181;SDS011;11759;51.282;6.642;2022-11-15T07:43:05;1.55;;;1.00;;
23181;SDS011;11759;51.282;6.642;2022-11-15T07:45:50;1.70;;;1.25;;
23181;SDS011;11759;51.282;6.642;2022-11-15T07:48:42;2.75;;;1.00;;
23181;SDS011;11759;51.282;6.642;2022-11-15T07:51:29;1.85;;;1.00;;
23181;SDS011;11759;51.282;6.642;2022-11-15T07:54:14;4.68;;;1.73;;
23181;SDS011;11759;51.282;6.642;2022-11-15T07:56:59;4.20;;;1.48;;
23181;SDS011;11759;51.282;6.642;2022-11-15T08:02:36;4.65;;;1.67;;
23181;SDS011;11759;51.282;6.642;2022-11-15T08:05:21;6.65;;;1.73;;
23181;SDS011;11759;51.282;6.642;2022-11-15T08:08:07;9.00;;;1.75;;
23181;SDS011;11759;51.282;6.642;2022-11-15T08:10:53;5.43;;;1.33;;
23181;SDS011;11759;51.282;6.642;2022-11-15T08:13:42;5.90;;;1.75;;
23181;SDS011;11759;51.282;6.642;2022-11-15T08:16:28;6.82;;;1.52;;
23181;SDS011;11759;51.282;6.642;2022-11-15T08:19:14;2.10;;;1.52;;
23181;SDS011;11759;51.282;6.642;2022-11-15T08:21:59;2.25;;;1.58;;
23181;SDS011;11759;51.282;6.642;2022-11-15T08:24:44;6.63;;;1.65;;
23181;SDS011;11759;51.282;6.642;2022-11-15T08:27:29;5.10;;;2.10;;
23181;SDS011;11759;51.282;6.642;2022-11-15T08:30:15;7.43;;;2.00;;
23181;SDS011;11759;51.282;6.642;2022-11-15T08:33:00;3.30;;;2.33;;
23181;SDS011;11759;51.282;6.642;2022-11-15T08:35:46;4.10;;;2.10;;
23181;SDS011;11759;51.282;6.642;2022-11-15T08:38:31;3.55;;;2.00;;
23181;SDS011;11759;51.282;6.642;2022-11-15T08:41:21;4.53;;;1.92;;
23181;SDS011;11759;51.282;6.642;2022-11-15T08:44:16;5.43;;;1.98;;
23181;SDS011;11759;51.282;6.642;2022-11-15T08:47:01;3.30;;;2.03;;
23181;SDS011;11759;51.282;6.642;2022-11-15T08:49:46;5.40;;;2.00;;
23181;SDS011;11759;51.282;6.642;2022-11-15T08:52:31;2.88;;;1.98;;
23181;SDS011;11759;51.282;6.642;2022-11-15T08:55:16;3.42;;;2.30;;
23181;SDS011;11759;51.282;6.642;2022-11-15T08:58:02;4.95;;;2.65;;
23181;SDS011;11759;51.282;6.642;2022-11-15T09:00:47;4.90;;;2.95;;
23181;SDS011;11759;51.282;6.642;2022-11-15T09:03:32;4.88;;;2.97;;
23181;SDS011;11759;51.282;6.642;2022-11-15T09:06:17;6.60;;;3.17;;
23181;SDS011;11759;51.282;6.642;2022-11-15T09:09:02;9.45;;;3.97;;
23181;SDS011;11759;51.282;6.642;2022-11-15T09:11:48;9.27;;;4.28;;
23181;SDS011;11759;51.282;6.642;2022-11-15T09:14:33;11.80;;;5.13;;
23181;SDS011;11759;51.282;6.642;2022-11-15T09:17:19;9.50;;;4.80;;
23181;SDS011;11759;51.282;6.642;2022-11-15T09:20:09;10.68;;;4.38;;
23181;SDS011;11759;51.282;6.642;2022-11-15T09:22:54;15.80;;;4.75;;
23181;SDS011;11759;51.282;6.642;2022-11-15T09:25:44;8.25;;;4.15;;
23181;SDS011;11759;51.282;6.642;2022-11-15T09:28:29;7.05;;;4.00;;
23181;SDS011;11759;51.282;6.642;2022-11-15T09:31:15;6.68;;;3.55;;
23181;SDS011;11759;51.282;6.642;2022-11-15T09:34:05;9.18;;;3.47;;
23181;SDS011;11759;51.282;6.642;2022-11-15T09:36:51;3.83;;;3.05;;
23181;SDS011;11759;51.282;6.642;2022-11-15T09:39:36;6.88;;;3.20;;
23181;SDS011;11759;51.282;6.642;2022-11-15T09:45:26;3.95;;;2.30;;
23181;SDS011;11759;51.282;6.642;2022-11-15T09:48:44;7.15;;;2.47;;
23181;SDS011;11759;51.282;6.642;2022-11-15T09:51:29;6.47;;;2.35;;
23181;SDS011;11759;51.282;6.642;2022-11-15T09:57:13;5.57;;;2.28;;
23181;SDS011;11759;51.282;6.642;2022-11-15T09:59:51;3.67;;;1.65;;
23181;SDS011;11759;51.282;6.642;2022-11-15T10:03:02;4.03;;;1.73;;
23181;SDS011;11759;51.282;6.642;2022-11-15T10:05:39;3.03;;;1.50;;
23181;SDS011;11759;51.282;6.642;2022-11-15T10:11:17;5.63;;;1.90;;
23181;SDS011;11759;51.282;6.642;2022-11-15T10:14:20;4.10;;;1.50;;
23181;SDS011;11759;51.282;6.642;2022-11-15T10:17:09;4.47;;;1.63;;
23181;SDS011;11759;51.282;6.642;2022-11-15T10:25:22;3.92;;;1.70;;
23181;SDS011;11759;51.282;6.642;2022-11-15T10:28:00;3.72;;;1.55;;
23181;SDS011;11759;51.282;6.642;2022-11-15T10:30:36;4.22;;;1.70;;
23181;SDS011;11759;51.282;6.642;2022-11-15T10:35:40;4.63;;;1.70;;
23181;SDS011;11759;51.282;6.642;2022-11-15T10:38:11;3.65;;;1.80;;
23181;SDS011;11759;51.282;6.642;2022-11-15T10:40:38;3.70;;;1.60;;
23181;SDS011;11759;51.282;6.642;2022-11-15T10:45:35;4.72;;;1.45;;
23181;SDS011;11759;51.282;6.642;2022-11-15T10:50:42;8.00;;;2.45;;
23181;SDS011;11759;51.282;6.642;2022-11-15T10:55:49;4.05;;;1.85;;
23181;SDS011;11759;51.282;6.642;2022-11-15T10:58:34;2.80;;;1.58;;
23181;SDS011;11759;51.282;6.642;2022-11-15T11:01:09;5.72;;;1.60;;
23181;SDS011;11759;51.282;6.642;2022-11-15T11:03:38;4.00;;;1.70;;
23181;SDS011;11759;51.282;6.642;2022-11-15T11:06:07;5.55;;;1.83;;
23181;SDS011;11759;51.282;6.642;2022-11-15T11:08:38;4.07;;;1.58;;
23181;SDS011;11759;51.282;6.642;2022-11-15T11:11:05;5.53;;;2.10;;
23181;SDS011;11759;51.282;6.642;2022-11-15T11:13:33;3.05;;;1.48;;
23181;SDS011;11759;51.282;6.642;2022-11-15T11:24:36;4.72;;;1.27;;
23181;SDS011;11759;51.282;6.642;2022-11-15T11:30:12;3.60;;;1.40;;
23181;SDS011;11759;51.282;6.642;2022-11-15T11:33:04;6.82;;;1.30;;
23181;SDS011;11759;51.282;6.642;2022-11-15T11:35:39;3.90;;;1.30;;
23181;SDS011;11759;51.282;6.642;2022-11-15T11:38:15;4.40;;;1.60;;
23181;SDS011;11759;51.282;6.642;2022-11-15T11:40:54;4.40;;;1.33;;
23181;SDS011;11759;51.282;6.642;2022-11-15T11:49:06;4.78;;;1.42;;
23181;SDS011;11759;51.282;6.642;2022-11-15T11:51:38;3.65;;;1.30;;
23181;SDS011;11759;51.282;6.642;2022-11-15T11:56:52;2.20;;;0.98;;
23181;SDS011;11759;51.282;6.642;2022-11-15T12:02:14;2.30;;;1.02;;
23181;SDS011;11759;51.282;6.642;2022-11-15T12:04:47;4.05;;;1.30;;
23181;SDS011;11759;51.282;6.642;2022-11-15T12:15:45;4.28;;;1.30;;
23181;SDS011;11759;51.282;6.642;2022-11-15T12:18:25;5.32;;;1.10;;
23181;SDS011;11759;51.282;6.642;2022-11-15T12:20:54;3.38;;;0.85;;
23181;SDS011;11759;51.282;6.642;2022-11-15T12:23:24;3.78;;;1.25;;
23181;SDS011;11759;51.282;6.642;2022-11-15T12:25:56;4.05;;;1.13;;
23181;SDS011;11759;51.282;6.642;2022-11-15T12:31:36;3.92;;;1.00;;
23181;SDS011;11759;51.282;6.642;2022-11-15T12:39:14;6.38;;;2.97;;
23181;SDS011;11759;51.282;6.642;2022-11-15T12:41:42;4.18;;;2.20;;
23181;SDS011;11759;51.282;6.642;2022-11-15T12:44:10;24.40;;;11.95;;
23181;SDS011;11759;51.282;6.642;2022-11-15T13:02:22;3.33;;;1.30;;
23181;SDS011;11759;51.282;6.642;2022-11-15T13:17:42;2.92;;;0.95;;
23181;SDS011;11759;51.282;6.642;2022-11-15T13:28:47;6.70;;;2.33;;
23181;SDS011;11759;51.282;6.642;2022-11-15T13:31:45;2.78;;;0.90;;
23181;SDS011;11759;51.282;6.642;2022-11-15T13:33:57;10.80;;;2.58;;
23181;SDS011;11759;51.282;6.642;2022-11-15T13:36:29;4.38;;;1.40;;
23181;SDS011;11759;51.282;6.642;2022-11-15T13:39:00;3.50;;;1.05;;
23181;SDS011;11759;51.282;6.642;2022-11-15T13:41:32;3.97;;;1.38;;
23181;SDS011;11759;51.282;6.642;2022-11-15T13:44:00;8.85;;;1.42;;
23181;SDS011;11759;51.282;6.642;2022-11-15T13:46:29;5.07;;;1.42;;
23181;SDS011;11759;51.282;6.642;2022-11-15T13:48:58;5.45;;;1.33;;
23181;SDS011;11759;51.282;6.642;2022-11-15T13:51:39;7.03;;;1.50;;
23181;SDS011;11759;51.282;6.642;2022-11-15T13:54:20;8.50;;;1.42;;
23181;SDS011;11759;51.282;6.642;2022-11-15T13:56:55;9.05;;;1.85;;
23181;SDS011;11759;51.282;6.642;2022-11-15T13:59:26;2.88;;;1.20;;
23181;SDS011;11759;51.282;6.642;2022-11-15T14:01:55;5.28;;;0.90;;
23181;SDS011;11759;51.282;6.642;2022-11-15T14:04:24;4.15;;;1.10;;
23181;SDS011;11759;51.282;6.642;2022-11-15T14:06:53;7.72;;;1.25;;
23181;SDS011;11759;51.282;6.642;2022-11-15T14:12:02;9.13;;;2.65;;
23181;SDS011;11759;51.282;6.642;2022-11-15T14:14:48;4.85;;;1.58;;
23181;SDS011;11759;51.282;6.642;2022-11-15T14:17:48;11.82;;;2.20;;
23181;SDS011;11759;51.282;6.642;2022-11-15T14:20:19;10.38;;;1.95;;
23181;SDS011;11759;51.282;6.642;2022-11-15T14:22:55;5.32;;;2.10;;
23181;SDS011;11759;51.282;6.642;2022-11-15T14:25:30;6.00;;;1.85;;
23181;SDS011;11759;51.282;6.642;2022-11-15T14:30:39;4.20;;;1.70;;
23181;SDS011;11759;51.282;6.642;2022-11-15T14:33:27;9.35;;;1.83;;
23181;SDS011;11759;51.282;6.642;2022-11-15T14:35:58;7.47;;;1.70;;
23181;SDS011;11759;51.282;6.642;2022-11-15T14:38:29;3.58;;;1.70;;
23181;SDS011;11759;51.282;6.642;2022-11-15T14:40:56;6.47;;;1.90;;
23181;SDS011;11759;51.282;6.642;2022-11-15T14:43:22;5.50;;;2.17;;
23181;SDS011;11759;51.282;6.642;2022-11-15T14:45:49;8.40;;;1.85;;
23181;SDS011;11759;51.282;6.642;2022-11-15T14:48:15;8.70;;;1.83;;
23181;SDS011;11759;51.282;6.642;2022-11-15T14:50:42;7.45;;;1.80;;
23181;SDS011;11759;51.282;6.642;2022-11-15T14:53:13;7.32;;;2.15;;
23181;SDS011;11759;51.282;6.642;2022-11-15T14:55:41;3.00;;;1.80;;
23181;SDS011;11759;51.282;6.642;2022-11-15T14:58:08;10.20;;;1.95;;
23181;SDS011;11759;51.282;6.642;2022-11-15T15:00:35;5.70;;;2.33;;
23181;SDS011;11759;51.282;6.642;2022-11-15T15:03:04;12.32;;;2.45;;
23181;SDS011;11759;51.282;6.642;2022-11-15T15:07:58;6.75;;;2.35;;
23181;SDS011;11759;51.282;6.642;2022-11-15T15:10:27;6.22;;;2.13;;
23181;SDS011;11759;51.282;6.642;2022-11-15T15:13:08;3.63;;;2.20;;
23181;SDS011;11759;51.282;6.642;2022-11-15T15:15:39;8.52;;;2.75;;
23181;SDS011;11759;51.282;6.642;2022-11-15T15:18:05;14.10;;;2.78;;
23181;SDS011;11759;51.282;6.642;2022-11-15T15:20:35;6.55;;;2.40;;
23181;SDS011;11759;51.282;6.642;2022-11-15T15:23:03;10.35;;;2.42;;
23181;SDS011;11759;51.282;6.642;2022-11-15T15:25:31;4.75;;;2.35;;
23181;SDS011;11759;51.282;6.642;2022-11-15T15:27:59;4.90;;;2.08;;
23181;SDS011;11759;51.282;6.642;2022-11-15T15:30:26;4.88;;;2.50;;
23181;SDS011;11759;51.282;6.642;2022-11-15T15:32:55;7.25;;;2.67;;
23181;SDS011;11759;51.282;6.642;2022-11-15T15:35:22;8.50;;;2.85;;
23181;SDS011;11759;51.282;6.642;2022-11-15T15:37:49;4.63;;;2.20;;
23181;SDS011;11759;51.282;6.642;2022-11-15T15:40:20;4.55;;;2.83;;
23181;SDS011;11759;51.282;6.642;2022-11-15T15:45:15;6.03;;;2.25;;
23181;SDS011;11759;51.282;6.642;2022-11-15T15:47:43;7.85;;;2.60;;
23181;SDS011;11759;51.282;6.642;2022-11-15T15:52:42;6.88;;;2.47;;
23181;SDS011;11759;51.282;6.642;2022-11-15T15:55:08;7.18;;;2.83;;
23181;SDS011;11759;51.282;6.642;2022-11-15T15:57:36;4.85;;;2.80;;
23181;SDS011;11759;51.282;6.642;2022-11-15T16:00:03;6.38;;;2.25;;
23181;SDS011;11759;51.282;6.642;2022-11-15T16:02:51;5.97;;;2.58;;
23181;SDS011;11759;51.282;6.642;2022-11-15T16:05:18;8.15;;;2.60;;
23181;SDS011;11759;51.282;6.642;2022-11-15T16:07:45;5.63;;;2.60;;
23181;SDS011;11759;51.282;6.642;2022-11-15T16:12:52;7.68;;;2.58;;
23181;SDS011;11759;51.282;6.642;2022-11-15T16:15:20;5.80;;;2.40;;
23181;SDS011;11759;51.282;6.642;2022-11-15T16:17:48;5.22;;;2.35;;
23181;SDS011;11759;51.282;6.642;2022-11-15T16:20:50;5.72;;;2.50;;
23181;SDS011;11759;51.282;6.642;2022-11-15T16:23:16;6.35;;;2.33;;
23181;SDS011;11759;51.282;6.642;2022-11-15T16:25:45;4.63;;;2.60;;
23181;SDS011;11759;51.282;6.642;2022-11-15T16:28:16;5.18;;;2.25;;
23181;SDS011;11759;51.282;6.642;2022-11-15T16:30:46;4.82;;;2.20;;
23181;SDS011;11759;51.282;6.642;2022-11-15T16:33:21;7.53;;;2.47;;
23181;SDS011;11759;51.282;6.642;2022-11-15T16:35:48;4.35;;;2.35;;
23181;SDS011;11759;51.282;6.642;2022-11-15T16:38:15;4.90;;;1.92;;
23181;SDS011;11759;51.282;6.642;2022-11-15T16:40:41;7.00;;;2.83;;
23181;SDS011;11759;51.282;6.642;2022-11-15T16:43:08;5.75;;;2.17;;
23181;SDS011;11759;51.282;6.642;2022-11-15T16:45:35;5.65;;;2.20;;
23181;SDS011;11759;51.282;6.642;2022-11-15T16:48:02;9.68;;;2.83;;
23181;SDS011;11759;51.282;6.642;2022-11-15T16:50:30;3.88;;;2.53;;
23181;SDS011;11759;51.282;6.642;2022-11-15T16:53:00;6.32;;;2.50;;
23181;SDS011;11759;51.282;6.642;2022-11-15T16:55:28;9.70;;;2.70;;
23181;SDS011;11759;51.282;6.642;2022-11-15T16:57:55;4.72;;;2.30;;
23181;SDS011;11759;51.282;6.642;2022-11-15T17:00:23;9.57;;;2.72;;
23181;SDS011;11759;51.282;6.642;2022-11-15T17:02:50;4.28;;;1.90;;
23181;SDS011;11759;51.282;6.642;2022-11-15T17:05:18;4.07;;;2.05;;
23181;SDS011;11759;51.282;6.642;2022-11-15T17:07:47;6.57;;;2.17;;
23181;SDS011;11759;51.282;6.642;2022-11-15T17:10:15;3.00;;;2.00;;
23181;SDS011;11759;51.282;6.642;2022-11-15T17:12:42;4.50;;;2.03;;
23181;SDS011;11759;51.282;6.642;2022-11-15T17:15:10;3.65;;;2.00;;
23181;SDS011;11759;51.282;6.642;2022-11-15T17:17:37;6.95;;;2.25;;
23181;SDS011;11759;51.282;6.642;2022-11-15T17:20:05;5.75;;;2.15;;
23181;SDS011;11759;51.282;6.642;2022-11-15T17:22:35;5.93;;;1.98;;
23181;SDS011;11759;51.282;6.642;2022-11-15T17:25:02;6.03;;;1.85;;
23181;SDS011;11759;51.282;6.642;2022-11-15T17:27:30;2.53;;;1.85;;
23181;SDS011;11759;51.282;6.642;2022-11-15T17:29:57;6.30;;;2.50;;
23181;SDS011;11759;51.282;6.642;2022-11-15T17:32:23;2.80;;;2.05;;
23181;SDS011;11759;51.282;6.642;2022-11-15T17:34:50;9.30;;;2.30;;
23181;SDS011;11759;51.282;6.642;2022-11-15T17:37:16;5.30;;;2.20;;
23181;SDS011;11759;51.282;6.642;2022-11-15T17:39:43;3.45;;;1.83;;
23181;SDS011;11759;51.282;6.642;2022-11-15T17:42:09;7.35;;;2.22;;
23181;SDS011;11759;51.282;6.642;2022-11-15T17:44:36;5.25;;;2.20;;
23181;SDS011;11759;51.282;6.642;2022-11-15T17:47:02;5.60;;;2.30;;
23181;SDS011;11759;51.282;6.642;2022-11-15T17:49:29;2.92;;;1.90;;
23181;SDS011;11759;51.282;6.642;2022-11-15T17:51:56;8.93;;;2.13;;
23181;SDS011;11759;51.282;6.642;2022-11-15T17:54:22;2.70;;;2.10;;
23181;SDS011;11759;51.282;6.642;2022-11-15T17:56:49;3.03;;;1.95;;
23181;SDS011;11759;51.282;6.642;2022-11-15T17:59:15;4.82;;;2.42;;
23181;SDS011;11759;51.282;6.642;2022-11-15T18:01:46;4.07;;;2.20;;
23181;SDS011;11759;51.282;6.642;2022-11-15T18:04:13;5.35;;;2.00;;
23181;SDS011;11759;51.282;6.642;2022-11-15T18:06:40;5.10;;;2.20;;
23181;SDS011;11759;51.282;6.642;2022-11-15T18:09:07;3.67;;;2.25;;
23181;SDS011;11759;51.282;6.642;2022-11-15T18:11:35;3.55;;;2.47;;
23181;SDS011;11759;51.282;6.642;2022-11-15T18:14:06;3.70;;;2.40;;
23181;SDS011;11759;51.282;6.642;2022-11-15T18:16:34;4.18;;;2.53;;
23181;SDS011;11759;51.282;6.642;2022-11-15T18:19:02;6.95;;;2.60;;
23181;SDS011;11759;51.282;6.642;2022-11-15T18:21:34;5.65;;;2.63;;